Time;durP1;ratioP1;P1;durP2;ratioP2;P2;SDS_P1;SDS_P2;PMS_P1;PMS_P2;Temp;Humidity;BMP_temperature;BMP_pressure;BME280_temperature;BME280_humidity;BME280_pressure;Samples;Min_cycle;Max_cycle;Signal;HPM_P1;HPM_P2
2022/12/31 00:03:02;;;;;;;4.32;2.80;;;;;10.70;96168.00;;;;8370475;28;20221;-80
2022/12/31 00:07:05;;;;;;;3.33;3.00;;;;;10.70;96175.00;;;;8370071;28;20268;-80
2022/12/31 00:11:09;;;;;;;3.55;2.92;;;;;10.60;96167.00;;;;8371039;28;20199;-80
2022/12/31 00:15:43;;;;;;;4.53;2.92;;;;;10.60;96175.00;;;;8369541;28;20197;-79
2022/12/31 00:19:50;;;;;;;4.85;3.08;;;;;10.60;96163.00;;;;8370118;28;20248;-80
2022/12/31 00:23:56;;;;;;;3.70;2.90;;;;;10.60;96175.00;;;;8369564;28;20224;-80
2022/12/31 00:28:29;;;;;;;5.22;3.10;;;;;10.60;96182.00;;;;8369250;28;20251;-80
2022/12/31 00:32:33;;;;;;;7.55;3.00;;;;;10.60;96184.00;;;;8369994;28;20208;-80
2022/12/31 00:36:39;;;;;;;3.45;2.63;;;;;10.60;96186.00;;;;8369436;28;20194;-80
2022/12/31 00:40:45;;;;;;;4.18;3.08;;;;;10.60;96191.00;;;;8368892;28;20210;-80
2022/12/31 00:45:25;;;;;;;3.47;3.00;;;;;10.60;96178.00;;;;8352370;28;20197;-80
2022/12/31 00:49:32;;;;;;;4.93;3.03;;;;;10.50;96183.00;;;;8369075;28;20589;-80
2022/12/31 00:53:38;;;;;;;5.00;2.83;;;;;10.40;96187.00;;;;8368158;28;20284;-80
2022/12/31 00:57:43;;;;;;;3.55;2.90;;;;;10.40;96197.00;;;;8368964;28;20216;-80
2022/12/31 01:02:17;;;;;;;3.40;2.85;;;;;10.40;96201.00;;;;8367654;28;20262;-80
2022/12/31 01:06:23;;;;;;;3.33;2.67;;;;;10.50;96201.00;;;;8368974;28;20259;-79
2022/12/31 01:15:04;;;;;;;6.13;2.70;;;;;10.60;96213.00;;;;8368604;28;20188;-79
2022/12/31 01:19:10;;;;;;;3.22;2.58;;;;;10.70;96210.00;;;;8367675;28;20230;-80
2022/12/31 01:23:13;;;;;;;2.55;2.35;;;;;10.70;96231.00;;;;8350833;28;20581;-80
2022/12/31 01:27:20;;;;;;;5.05;2.58;;;;;10.70;96233.00;;;;8367805;28;20189;-80
2022/12/31 01:31:26;;;;;;;2.33;2.13;;;;;10.70;96244.00;;;;8368481;28;20602;-79
2022/12/31 01:35:31;;;;;;;2.53;2.33;;;;;10.80;96253.00;;;;8367438;28;20196;-79
2022/12/31 01:39:35;;;;;;;3.97;2.30;;;;;10.80;96241.00;;;;8367235;28;20217;-79
2022/12/31 01:44:26;;;;;;;3.10;2.50;;;;;10.80;96243.00;;;;8366974;28;20185;-79
2022/12/31 01:48:32;;;;;;;2.80;2.17;;;;;10.80;96236.00;;;;8267062;28;20201;-79
2022/12/31 01:52:42;;;;;;;2.20;2.00;;;;;10.80;96245.00;;;;8366135;28;20203;-79
2022/12/31 01:57:13;;;;;;;2.33;2.08;;;;;10.90;96252.00;;;;8367810;28;20529;-80
2022/12/31 02:01:22;;;;;;;2.95;1.80;;;;;11.00;96243.00;;;;8366396;28;20716;-79
2022/12/31 02:05:36;;;;;;;1.80;1.70;;;;;11.00;96248.00;;;;8365778;28;20233;-79
2022/12/31 02:10:02;;;;;;;3.05;2.00;;;;;10.90;96256.00;;;;8366228;28;20203;-79
2022/12/31 02:14:10;;;;;;;2.10;2.00;;;;;10.90;96258.00;;;;8366742;28;20265;-79
2022/12/31 02:18:21;;;;;;;2.03;1.83;;;;;10.90;96249.00;;;;8365717;28;20218;-80
2022/12/31 02:22:59;;;;;;;2.13;1.95;;;;;10.90;96268.00;;;;8367245;28;20201;-80
2022/12/31 02:27:09;;;;;;;5.53;2.30;;;;;10.90;96258.00;;;;8348012;28;20194;-79
2022/12/31 02:31:18;;;;;;;2.10;1.90;;;;;10.90;96262.00;;;;8365697;28;20238;-79
2022/12/31 02:35:52;;;;;;;2.08;1.92;;;;;10.90;96253.00;;;;8364156;28;20194;-79
2022/12/31 02:39:56;;;;;;;2.65;1.90;;;;;10.90;96261.00;;;;8364749;28;20228;-79
2022/12/31 02:44:01;;;;;;;2.63;1.80;;;;;10.80;96271.00;;;;8364472;28;20278;-79
2022/12/31 02:48:29;;;;;;;3.35;2.00;;;;;10.90;96272.00;;;;8361591;28;20631;-80
2022/12/31 02:52:54;;;;;;;1.85;1.75;;;;;10.90;96271.00;;;;8364576;28;20196;-79
2022/12/31 02:57:06;;;;;;;2.90;1.98;;;;;11.00;96271.00;;;;8366004;28;20196;-79
2022/12/31 03:05:27;;;;;;;2.05;1.95;;;;;11.00;96283.00;;;;8290174;28;20218;-79
2022/12/31 03:09:31;;;;;;;4.20;2.35;;;;;11.00;96277.00;;;;8314807;28;20558;-79
2022/12/31 03:13:35;;;;;;;1.98;1.88;;;;;11.00;96275.00;;;;8304939;28;20698;-79
2022/12/31 03:17:46;;;;;;;2.20;1.73;;;;;11.00;96291.00;;;;8304799;28;20206;-79
2022/12/31 03:26:14;;;;;;;5.22;1.83;;;;;11.10;96302.00;;;;8309511;28;20196;-79
2022/12/31 03:30:18;;;;;;;2.20;2.00;;;;;11.10;96307.00;;;;8310033;28;20249;-79
2022/12/31 03:34:24;;;;;;;4.28;2.28;;;;;11.20;96318.00;;;;8303743;28;21009;-79
2022/12/31 03:38:28;;;;;;;1.90;1.80;;;;;11.20;96308.00;;;;8311512;28;20209;-79
2022/12/31 03:42:34;;;;;;;4.70;1.80;;;;;11.20;96309.00;;;;8313226;28;20203;-79
2022/12/31 03:46:37;;;;;;;3.28;1.75;;;;;11.30;96317.00;;;;8311189;28;20244;-79
2022/12/31 03:50:41;;;;;;;1.80;1.70;;;;;11.30;96327.00;;;;8309262;28;20754;-80
2022/12/31 03:54:47;;;;;;;2.15;1.60;;;;;11.30;96305.00;;;;8304072;28;20205;-80
2022/12/31 03:58:52;;;;;;;3.17;1.45;;;;;11.20;96304.00;;;;8309611;28;20281;-79
2022/12/31 04:02:55;;;;;;;3.03;1.55;;;;;11.10;96313.00;;;;8311466;28;20291;-79
2022/12/31 04:07:00;;;;;;;1.30;1.30;;;;;11.10;96318.00;;;;8309437;28;20208;-80
2022/12/31 04:11:05;;;;;;;1.40;1.40;;;;;11.10;96315.00;;;;8310303;28;20197;-80
2022/12/31 04:15:11;;;;;;;3.33;1.40;;;;;11.00;96313.00;;;;8312048;28;20563;-79
2022/12/31 04:19:17;;;;;;;1.55;1.45;;;;;10.90;96321.00;;;;8311951;28;20233;-79
2022/12/31 04:23:23;;;;;;;2.47;1.85;;;;;10.90;96319.00;;;;8308838;28;20260;-79
2022/12/31 04:27:27;;;;;;;1.85;1.75;;;;;10.80;96308.00;;;;8307690;28;20250;-79
2022/12/31 04:31:30;;;;;;;1.63;1.50;;;;;10.70;96318.00;;;;8298236;28;20337;-78
2022/12/31 04:35:34;;;;;;;5.55;1.40;;;;;10.70;96322.00;;;;8314923;28;20207;-78
2022/12/31 04:39:37;;;;;;;1.35;1.35;;;;;10.70;96323.00;;;;8313579;28;20225;-78
2022/12/31 04:43:42;;;;;;;2.05;1.52;;;;;10.80;96336.00;;;;8314497;28;20190;-78
2022/12/31 04:47:45;;;;;;;7.32;2.22;;;;;10.90;96340.00;;;;8311970;28;20204;-79
2022/12/31 04:51:48;;;;;;;1.63;1.58;;;;;11.00;96342.00;;;;8315213;28;20197;-79
2022/12/31 04:55:53;;;;;;;1.30;1.30;;;;;11.10;96346.00;;;;8319823;28;20203;-79
2022/12/31 05:00:00;;;;;;;1.67;1.60;;;;;11.20;96346.00;;;;8317785;28;20224;-79
2022/12/31 05:04:03;;;;;;;2.95;1.60;;;;;11.20;96360.00;;;;8311094;28;20624;-78
2022/12/31 05:08:06;;;;;;;5.05;3.47;;;;;11.30;96365.00;;;;8311002;28;20196;-78
2022/12/31 05:12:12;;;;;;;3.83;1.58;;;;;11.40;96368.00;;;;8315907;28;20256;-78
2022/12/31 05:16:16;;;;;;;2.10;1.90;;;;;11.40;96361.00;;;;8306396;28;20206;-80
2022/12/31 05:20:20;;;;;;;1.55;1.48;;;;;11.50;96365.00;;;;8308309;28;20245;-78
2022/12/31 05:24:23;;;;;;;2.45;1.40;;;;;11.50;96360.00;;;;8315370;28;20197;-78
2022/12/31 05:28:27;;;;;;;1.30;1.30;;;;;11.60;96372.00;;;;8313864;28;20672;-79
2022/12/31 05:32:31;;;;;;;3.85;1.30;;;;;11.60;96372.00;;;;8308353;28;20212;-79
2022/12/31 05:36:35;;;;;;;1.77;1.50;;;;;11.50;96368.00;;;;8311347;28;20285;-79
2022/12/31 05:40:41;;;;;;;6.07;3.90;;;;;11.40;96369.00;;;;8316547;28;20236;-79
2022/12/31 05:44:44;;;;;;;1.60;1.50;;;;;11.40;96377.00;;;;8311014;28;20244;-78
2022/12/31 05:48:53;;;;;;;1.55;1.45;;;;;11.40;96377.00;;;;8312945;28;20285;-79
2022/12/31 05:52:58;;;;;;;2.35;1.52;;;;;11.40;96389.00;;;;8313287;28;20202;-78
2022/12/31 06:01:35;;;;;;;3.80;1.42;;;;;11.40;96379.00;;;;8304370;28;20354;-78
2022/12/31 06:05:43;;;;;;;2.40;1.30;;;;;11.40;96382.00;;;;8315230;28;20200;-78
2022/12/31 06:09:46;;;;;;;1.35;1.20;;;;;11.40;96392.00;;;;8309535;28;20223;-79
2022/12/31 06:13:53;;;;;;;1.30;1.30;;;;;11.40;96396.00;;;;8315124;28;20567;-78
2022/12/31 06:18:07;;;;;;;4.88;1.60;;;;;11.30;96383.00;;;;8311717;28;20602;-78
2022/12/31 06:22:13;;;;;;;1.80;1.70;;;;;11.40;96389.00;;;;8310916;28;20603;-78
2022/12/31 06:26:16;;;;;;;3.03;1.63;;;;;11.40;96398.00;;;;8307762;28;20579;-78
2022/12/31 06:30:19;;;;;;;1.45;1.30;;;;;11.40;96397.00;;;;8306643;28;20200;-79
2022/12/31 06:34:22;;;;;;;1.60;1.60;;;;;11.40;96392.00;;;;8308646;28;20595;-78
2022/12/31 06:38:31;;;;;;;3.45;1.30;;;;;11.40;96392.00;;;;8307685;28;20205;-78
2022/12/31 06:42:34;;;;;;;1.48;1.38;;;;;11.40;96398.00;;;;8299847;28;20702;-77
2022/12/31 06:46:39;;;;;;;3.03;1.30;;;;;11.30;96397.00;;;;8308340;28;20205;-77
2022/12/31 06:50:43;;;;;;;5.47;2.75;;;;;11.40;96399.00;;;;8310898;28;20205;-78
2022/12/31 06:54:48;;;;;;;6.00;2.65;;;;;11.30;96388.00;;;;8315017;28;20891;-77
2022/12/31 06:58:55;;;;;;;3.30;1.58;;;;;11.20;96398.00;;;;8310649;28;20191;-79
2022/12/31 07:03:19;;;;;;;5.60;1.40;;;;;11.10;96412.00;;;;8302840;28;20227;-79
2022/12/31 07:07:31;;;;;;;1.40;1.40;;;;;11.00;96406.00;;;;8298581;28;20975;-78
2022/12/31 07:11:46;;;;;;;1.38;1.38;;;;;11.00;96417.00;;;;8304083;28;20203;-78
2022/12/31 07:16:10;;;;;;;1.50;1.50;;;;;10.90;96398.00;;;;8304248;28;20650;-76
2022/12/31 07:20:16;;;;;;;1.75;1.50;;;;;11.00;96407.00;;;;8301307;28;20232;-75
2022/12/31 07:24:22;;;;;;;1.73;1.63;;;;;11.10;96409.00;;;;8300631;28;20205;-76
2022/12/31 07:28:38;;;;;;;1.58;1.58;;;;;11.20;96412.00;;;;8302608;28;20566;-75
2022/12/31 07:33:12;;;;;;;1.48;1.38;;;;;11.40;96423.00;;;;8309129;28;20211;-74
2022/12/31 07:37:39;;;;;;;1.40;1.40;;;;;11.50;96416.00;;;;8310689;28;20224;-76
2022/12/31 07:41:52;;;;;;;2.38;1.10;;;;;11.60;96426.00;;;;8310217;28;20225;-74
2022/12/31 07:46:07;;;;;;;1.05;1.00;;;;;11.70;96429.00;;;;8291085;28;20345;-75
2022/12/31 08:33:16;;;;;;;1.92;1.17;;;;;12.80;96472.00;;;;8307649;28;20213;-71
2022/12/31 08:37:35;;;;;;;1.40;1.30;;;;;12.90;96477.00;;;;8312609;28;20548;-71
2022/12/31 08:41:43;;;;;;;1.25;1.25;;;;;13.00;96475.00;;;;8316867;28;20232;-75
2022/12/31 08:45:49;;;;;;;2.22;1.20;;;;;13.20;96484.00;;;;8320642;28;20597;-75
2022/12/31 08:49:55;;;;;;;1.17;1.10;;;;;13.30;96483.00;;;;8323282;28;20678;-76
2022/12/31 08:54:03;;;;;;;1.00;1.00;;;;;13.50;96498.00;;;;8311909;28;20646;-74
2022/12/31 08:58:18;;;;;;;1.30;1.25;;;;;13.60;96493.00;;;;8309852;28;20193;-74
2022/12/31 09:02:46;;;;;;;1.50;1.13;;;;;13.80;96497.00;;;;8322022;28;20234;-74
2022/12/31 09:06:58;;;;;;;1.05;1.05;;;;;13.90;96498.00;;;;8316683;28;20261;-74
2022/12/31 09:11:11;;;;;;;1.27;1.17;;;;;14.10;96493.00;;;;8312029;28;20631;-74
2022/12/31 09:15:30;;;;;;;1.13;1.00;;;;;14.20;96491.00;;;;8310235;28;20203;-75
2022/12/31 09:19:34;;;;;;;1.00;1.00;;;;;14.30;96507.00;;;;8301730;28;20342;-75
2022/12/31 09:23:39;;;;;;;1.15;1.00;;;;;14.30;96502.00;;;;8309647;28;20644;-75
2022/12/31 09:27:57;;;;;;;1.05;1.05;;;;;14.50;96504.00;;;;8308878;28;20208;-75
2022/12/31 09:32:08;;;;;;;1.95;1.00;;;;;14.60;96520.00;;;;8312025;28;20208;-75
2022/12/31 09:36:22;;;;;;;4.00;0.90;;;;;14.80;96521.00;;;;8306562;28;20289;-75
2022/12/31 09:40:52;;;;;;;0.88;0.88;;;;;15.00;96523.00;;;;8317846;28;20255;-74
2022/12/31 09:45:22;;;;;;;1.63;1.52;;;;;15.10;96523.00;;;;8314383;28;20197;-74
2022/12/31 09:50:07;;;;;;;1.52;1.42;;;;;15.20;96529.00;;;;8306897;28;20246;-74
2022/12/31 09:54:33;;;;;;;0.80;0.80;;;;;15.40;96530.00;;;;8241086;28;20202;-74
2022/12/31 09:58:44;;;;;;;1.05;1.05;;;;;15.40;96525.00;;;;8304228;28;20210;-74
2022/12/31 10:03:16;;;;;;;3.55;1.65;;;;;15.40;96525.00;;;;8309958;28;20233;-74
2022/12/31 10:07:38;;;;;;;1.77;1.50;;;;;15.40;96529.00;;;;8274794;28;20199;-74
2022/12/31 10:12:01;;;;;;;1.50;1.40;;;;;15.40;96524.00;;;;8304313;28;20260;-74
2022/12/31 10:16:25;;;;;;;0.93;0.93;;;;;15.50;96527.00;;;;8304059;28;20268;-73
2022/12/31 10:20:41;;;;;;;0.82;0.82;;;;;15.60;96537.00;;;;8303223;28;20202;-73
2022/12/31 10:25:09;;;;;;;1.75;0.77;;;;;15.70;96536.00;;;;8306334;28;20229;-72
2022/12/31 10:29:30;;;;;;;0.75;0.75;;;;;15.80;96539.00;;;;8303580;28;20704;-73
2022/12/31 10:34:12;;;;;;;0.90;0.90;;;;;15.90;96544.00;;;;8303265;28;20240;-73
2022/12/31 10:38:29;;;;;;;0.93;0.90;;;;;15.90;96548.00;;;;8303904;28;20255;-73
2022/12/31 10:43:05;;;;;;;0.90;0.90;;;;;16.10;96555.00;;;;8294204;28;20225;-74
2022/12/31 10:47:47;;;;;;;0.90;0.90;;;;;16.20;96548.00;;;;8221099;28;1220746;-72
2022/12/31 10:57:06;;;;;;;1.00;1.00;;;;;16.40;96552.00;;;;8377649;27;20587;-74
2022/12/31 11:01:19;;;;;;;1.00;1.00;;;;;16.50;96541.00;;;;8328308;28;20573;-71
2022/12/31 11:06:01;;;;;;;0.80;0.80;;;;;16.60;96534.00;;;;8372770;28;20688;-74
2022/12/31 11:10:27;;;;;;;1.15;0.90;;;;;16.80;96527.00;;;;8365452;28;20436;-74
2022/12/31 11:15:04;;;;;;;0.98;0.98;;;;;16.80;96530.00;;;;8377036;28;20228;-74
2022/12/31 11:19:21;;;;;;;0.98;0.98;;;;;16.80;96521.00;;;;8378327;28;20299;-74
2022/12/31 11:23:41;;;;;;;2.03;1.13;;;;;16.90;96526.00;;;;8380513;28;20243;-74
2022/12/31 11:28:04;;;;;;;3.50;1.15;;;;;16.90;96523.00;;;;8386537;28;20702;-73
2022/12/31 11:32:19;;;;;;;0.90;0.90;;;;;17.00;96538.00;;;;8376745;28;20196;-74
2022/12/31 11:36:41;;;;;;;0.90;0.90;;;;;16.90;96534.00;;;;8377088;28;20415;-73
2022/12/31 11:40:56;;;;;;;1.10;1.10;;;;;16.80;96517.00;;;;8368762;28;20810;-73
2022/12/31 11:45:14;;;;;;;1.25;1.13;;;;;16.80;96517.00;;;;8372741;28;20202;-71
2022/12/31 11:49:40;;;;;;;1.00;1.00;;;;;16.80;96520.00;;;;8378750;28;20207;-74
2022/12/31 11:54:00;;;;;;;1.08;1.08;;;;;16.90;96504.00;;;;8370846;28;20231;-73
2022/12/31 11:58:15;;;;;;;1.70;1.20;;;;;17.00;96490.00;;;;8368136;28;20201;-75
2022/12/31 12:02:28;;;;;;;2.22;1.30;;;;;17.00;96498.00;;;;8363687;28;20275;-75
2022/12/31 12:06:33;;;;;;;1.02;1.02;;;;;17.10;96501.00;;;;8354430;28;20209;-75
2022/12/31 12:10:44;;;;;;;1.25;1.13;;;;;17.20;96514.00;;;;8346522;28;20224;-75
2022/12/31 12:14:53;;;;;;;1.00;1.00;;;;;17.20;96512.00;;;;8352208;28;20232;-75
2022/12/31 12:19:05;;;;;;;1.20;1.20;;;;;17.20;96505.00;;;;8354655;28;20760;-75
2022/12/31 12:23:14;;;;;;;0.93;0.93;;;;;17.20;96496.00;;;;8349470;28;20217;-75
2022/12/31 12:27:23;;;;;;;0.98;0.98;;;;;17.20;96491.00;;;;8347812;28;20251;-75
2022/12/31 12:31:26;;;;;;;0.90;0.90;;;;;17.20;96485.00;;;;8351168;28;20255;-75
2022/12/31 12:35:35;;;;;;;1.00;1.00;;;;;17.20;96485.00;;;;8351986;28;20244;-75
2022/12/31 12:39:39;;;;;;;1.38;1.27;;;;;17.10;96495.00;;;;8342544;28;20814;-75
2022/12/31 12:43:44;;;;;;;1.00;1.00;;;;;17.00;96476.00;;;;8347317;28;20201;-75
2022/12/31 12:47:50;;;;;;;1.45;1.35;;;;;17.00;96493.00;;;;8349997;28;20213;-75
2022/12/31 12:52:26;;;;;;;2.38;1.20;;;;;16.90;96494.00;;;;8347074;28;20608;-75
2022/12/31 12:56:40;;;;;;;1.38;1.38;;;;;17.00;96516.00;;;;8341292;28;20225;-75
2022/12/31 13:00:50;;;;;;;1.27;1.20;;;;;17.00;96511.00;;;;8349449;28;20808;-75
2022/12/31 13:05:13;;;;;;;1.05;1.05;;;;;17.00;96506.00;;;;8347735;28;20221;-74
2022/12/31 13:09:30;;;;;;;1.20;1.10;;;;;16.90;96500.00;;;;8343781;28;20196;-74
2022/12/31 13:13:42;;;;;;;1.65;1.55;;;;;16.90;96484.00;;;;8345776;28;20240;-76
2022/12/31 13:17:58;;;;;;;1.20;1.20;;;;;16.90;96496.00;;;;8343917;28;20242;-75
2022/12/31 13:22:13;;;;;;;1.23;1.23;;;;;16.90;96499.00;;;;8346423;28;20228;-75
2022/12/31 13:26:21;;;;;;;1.98;1.10;;;;;16.90;96500.00;;;;8341090;28;20204;-73
2022/12/31 13:30:32;;;;;;;1.00;1.00;;;;;16.90;96496.00;;;;8341011;28;20212;-74
2022/12/31 13:34:41;;;;;;;1.10;1.10;;;;;16.90;96501.00;;;;8341046;28;20251;-74
2022/12/31 13:38:48;;;;;;;2.70;1.10;;;;;16.80;96502.00;;;;8343491;28;20243;-74
2022/12/31 13:43:00;;;;;;;1.58;1.30;;;;;16.90;96494.00;;;;8346365;28;20550;-73
2022/12/31 13:47:11;;;;;;;1.50;1.40;;;;;16.80;96497.00;;;;8339892;28;20201;-75
2022/12/31 13:51:31;;;;;;;5.47;2.20;;;;;16.70;96492.00;;;;8341822;28;20198;-73
2022/12/31 14:01:02;;;;;;;1.50;1.45;;;;;16.50;96480.00;;;;8326951;28;20216;-72
2022/12/31 14:05:22;;;;;;;1.80;1.33;;;;;16.50;96495.00;;;;8343935;28;20271;-72
2022/12/31 14:09:30;;;;;;;1.95;1.85;;;;;16.40;96486.00;;;;8350720;28;20234;-72
2022/12/31 14:13:44;;;;;;;2.92;1.50;;;;;16.30;96500.00;;;;8341251;28;20201;-73
2022/12/31 14:17:51;;;;;;;2.35;1.20;;;;;16.20;96492.00;;;;8335775;28;20255;-72
2022/12/31 14:22:02;;;;;;;1.27;1.27;;;;;16.10;96489.00;;;;8347009;28;20196;-72
2022/12/31 14:26:10;;;;;;;1.50;1.40;;;;;15.90;96497.00;;;;8343755;28;20559;-73
2022/12/31 14:30:17;;;;;;;1.42;1.40;;;;;15.80;96501.00;;;;8341669;28;20200;-73
2022/12/31 14:34:33;;;;;;;2.08;1.30;;;;;15.60;96502.00;;;;8347207;28;20287;-73
2022/12/31 14:38:49;;;;;;;1.60;1.50;;;;;15.50;96510.00;;;;8339503;28;20203;-73
2022/12/31 14:43:07;;;;;;;2.10;1.73;;;;;15.30;96512.00;;;;8337032;28;20579;-73
2022/12/31 14:47:26;;;;;;;5.05;2.33;;;;;15.00;96507.00;;;;8338019;28;20192;-73
2022/12/31 14:51:30;;;;;;;2.00;1.80;;;;;14.70;96508.00;;;;8333836;28;20197;-73
2022/12/31 14:55:36;;;;;;;4.65;1.85;;;;;14.50;96506.00;;;;8337512;28;20225;-73
2022/12/31 14:59:52;;;;;;;1.75;1.65;;;;;14.20;96501.00;;;;8340176;28;20262;-73
2022/12/31 15:03:57;;;;;;;2.22;1.90;;;;;13.90;96508.00;;;;8342095;28;20225;-72
2022/12/31 15:08:19;;;;;;;1.70;1.60;;;;;13.60;96515.00;;;;8346410;28;20699;-72
2022/12/31 15:12:43;;;;;;;4.03;3.20;;;;;13.30;96506.00;;;;8344318;28;20196;-73
2022/12/31 15:16:58;;;;;;;3.38;3.08;;;;;13.00;96521.00;;;;8344256;28;20757;-73
2022/12/31 15:21:25;;;;;;;4.80;2.97;;;;;12.80;96522.00;;;;8347257;28;20212;-72
2022/12/31 15:25:32;;;;;;;4.03;3.45;;;;;12.60;96517.00;;;;8348264;28;20250;-73
2022/12/31 15:29:44;;;;;;;8.13;4.45;;;;;12.40;96514.00;;;;8346312;28;20205;-73
2022/12/31 15:33:58;;;;;;;4.85;3.20;;;;;12.40;96509.00;;;;8344026;28;20247;-73
2022/12/31 15:38:31;;;;;;;4.97;3.40;;;;;12.50;96517.00;;;;8345401;28;20254;-72
2022/12/31 15:42:42;;;;;;;5.75;3.10;;;;;12.60;96525.00;;;;8351181;28;20258;-72
2022/12/31 15:46:56;;;;;;;4.57;3.10;;;;;12.70;96518.00;;;;8352317;28;20208;-72
2022/12/31 15:51:02;;;;;;;4.22;3.20;;;;;12.70;96529.00;;;;8352348;28;20250;-72
2022/12/31 15:55:09;;;;;;;3.58;2.67;;;;;12.70;96540.00;;;;8344645;28;20269;-72
2022/12/31 15:59:17;;;;;;;4.80;3.17;;;;;12.70;96536.00;;;;8335936;28;20201;-73
2022/12/31 16:03:25;;;;;;;10.00;3.75;;;;;12.70;96535.00;;;;8343849;28;20285;-72
2022/12/31 16:07:32;;;;;;;7.72;4.80;;;;;12.70;96541.00;;;;8341230;28;20227;-72
2022/12/31 16:11:40;;;;;;;7.45;4.65;;;;;12.60;96546.00;;;;8339595;28;20208;-72
2022/12/31 16:15:49;;;;;;;4.82;3.47;;;;;12.60;96538.00;;;;8341327;28;20224;-73
2022/12/31 16:19:53;;;;;;;8.38;3.65;;;;;12.50;96544.00;;;;8345464;28;20204;-72
2022/12/31 16:24:00;;;;;;;39.90;19.67;;;;;12.40;96548.00;;;;8343618;28;20196;-73
2022/12/31 16:28:03;;;;;;;42.60;22.48;;;;;12.40;96550.00;;;;8346691;28;20192;-73
2022/12/31 16:32:14;;;;;;;12.38;9.00;;;;;12.30;96546.00;;;;8345646;28;20250;-73
2022/12/31 16:36:22;;;;;;;26.27;13.65;;;;;12.30;96560.00;;;;8348067;28;20231;-73
2022/12/31 16:40:31;;;;;;;107.68;50.53;;;;;12.20;96550.00;;;;8346453;28;20201;-76
2022/12/31 16:44:35;;;;;;;10.10;6.13;;;;;12.10;96549.00;;;;8343007;28;20255;-74
2022/12/31 16:48:46;;;;;;;20.48;10.88;;;;;12.00;96550.00;;;;8341242;28;20317;-74
2022/12/31 16:52:56;;;;;;;18.85;11.75;;;;;12.00;96555.00;;;;8339062;28;20201;-73
2022/12/31 16:57:02;;;;;;;15.52;10.18;;;;;11.90;96555.00;;;;8342879;28;20228;-74
2022/12/31 17:01:12;;;;;;;11.52;7.60;;;;;11.80;96555.00;;;;8339785;28;20193;-73
2022/12/31 17:05:20;;;;;;;18.63;8.48;;;;;11.80;96554.00;;;;8341597;28;20225;-73
2022/12/31 17:09:33;;;;;;;15.77;8.07;;;;;11.70;96546.00;;;;8340930;28;20211;-73
2022/12/31 17:13:40;;;;;;;16.42;7.68;;;;;11.60;96542.00;;;;8344442;28;20199;-73
2022/12/31 17:17:56;;;;;;;23.83;10.45;;;;;11.40;96550.00;;;;8344497;28;20260;-73
2022/12/31 17:22:00;;;;;;;16.27;9.45;;;;;11.30;96559.00;;;;8338243;28;20205;-73
2022/12/31 17:26:10;;;;;;;14.00;7.70;;;;;11.20;96564.00;;;;8340391;28;20274;-73
2022/12/31 17:30:34;;;;;;;17.05;8.93;;;;;11.10;96559.00;;;;8338275;28;20208;-73
2022/12/31 17:34:48;;;;;;;22.23;14.68;;;;;11.00;96554.00;;;;8335780;28;20258;-73
2022/12/31 17:39:02;;;;;;;19.20;11.07;;;;;11.00;96553.00;;;;8331360;28;21009;-73
2022/12/31 17:43:06;;;;;;;18.77;9.43;;;;;11.00;96555.00;;;;8335618;28;20262;-76
2022/12/31 17:47:13;;;;;;;18.83;10.75;;;;;10.90;96560.00;;;;8340130;28;20200;-76
2022/12/31 17:51:19;;;;;;;17.70;9.20;;;;;10.90;96554.00;;;;8342248;28;20207;-76
2022/12/31 17:55:26;;;;;;;15.45;9.75;;;;;10.80;96555.00;;;;8344372;28;20276;-76
2022/12/31 17:59:32;;;;;;;23.17;11.32;;;;;10.80;96557.00;;;;8344470;28;20673;-76
2022/12/31 18:03:38;;;;;;;18.38;11.38;;;;;10.70;96560.00;;;;8346759;28;20278;-76
2022/12/31 18:07:42;;;;;;;17.65;10.05;;;;;10.60;96559.00;;;;8341808;28;20201;-76
2022/12/31 18:11:46;;;;;;;16.50;9.65;;;;;10.60;96561.00;;;;8344590;28;20211;-76
2022/12/31 18:15:51;;;;;;;24.42;12.43;;;;;10.60;96562.00;;;;8341862;28;20257;-76
2022/12/31 18:19:56;;;;;;;24.75;11.45;;;;;10.50;96573.00;;;;8343709;28;20189;-76
2022/12/31 18:24:12;;;;;;;24.83;10.43;;;;;10.40;96572.00;;;;8342008;28;20757;-75
2022/12/31 18:28:16;;;;;;;18.23;10.88;;;;;10.20;96573.00;;;;8344286;28;20250;-76
2022/12/31 18:32:21;;;;;;;19.40;10.18;;;;;10.20;96573.00;;;;8343705;28;21458;-76
2022/12/31 18:36:28;;;;;;;18.08;9.75;;;;;10.10;96589.00;;;;8344163;28;20270;-76
2022/12/31 18:40:32;;;;;;;17.05;10.25;;;;;9.90;96586.00;;;;8343352;28;20205;-76
2022/12/31 18:44:38;;;;;;;24.83;12.13;;;;;9.80;96589.00;;;;8344362;28;20197;-76
2022/12/31 18:48:42;;;;;;;22.38;12.57;;;;;9.90;96594.00;;;;8346744;28;20234;-76
2022/12/31 18:52:47;;;;;;;29.00;14.10;;;;;9.90;96588.00;;;;8343144;28;20220;-76
2022/12/31 18:56:50;;;;;;;28.83;14.77;;;;;9.90;96596.00;;;;8342463;28;20294;-76
2022/12/31 19:01:01;;;;;;;32.45;14.35;;;;;9.90;96598.00;;;;8345005;28;20716;-76
2022/12/31 19:05:20;;;;;;;24.35;13.05;;;;;9.90;96596.00;;;;8343375;28;20227;-76
2022/12/31 19:09:25;;;;;;;24.20;12.35;;;;;9.80;96602.00;;;;8339162;28;20297;-76
2022/12/31 19:13:49;;;;;;;25.42;12.93;;;;;9.80;96611.00;;;;8340172;28;20205;-76
2022/12/31 19:17:54;;;;;;;32.10;14.90;;;;;9.70;96610.00;;;;8349398;28;20680;-76
2022/12/31 19:21:58;;;;;;;28.85;13.40;;;;;9.60;96607.00;;;;8347738;28;20246;-77
2022/12/31 19:26:06;;;;;;;23.65;13.15;;;;;9.50;96610.00;;;;8348863;28;20222;-77
2022/12/31 19:30:15;;;;;;;22.60;12.55;;;;;9.50;96608.00;;;;8346679;28;20826;-76
2022/12/31 19:34:20;;;;;;;24.75;13.20;;;;;9.40;96601.00;;;;8348108;28;20227;-76
2022/12/31 19:38:25;;;;;;;27.77;14.15;;;;;9.40;96600.00;;;;8344124;28;20217;-76
2022/12/31 19:42:30;;;;;;;24.02;11.98;;;;;9.30;96616.00;;;;8348690;28;20202;-75
2022/12/31 19:46:34;;;;;;;22.88;11.02;;;;;9.10;96610.00;;;;8351350;28;20204;-76
2022/12/31 19:50:44;;;;;;;23.55;12.52;;;;;8.90;96629.00;;;;8345715;28;20220;-76
2022/12/31 19:54:48;;;;;;;65.57;28.40;;;;;8.70;96641.00;;;;8347445;28;20295;-76
2022/12/31 19:58:53;;;;;;;37.90;19.08;;;;;8.60;96644.00;;;;8349250;28;20250;-76
2022/12/31 20:02:57;;;;;;;40.72;17.90;;;;;8.60;96647.00;;;;8351668;28;20246;-76
2022/12/31 20:07:01;;;;;;;29.48;15.07;;;;;8.60;96640.00;;;;8343277;28;20204;-76
2022/12/31 20:11:08;;;;;;;39.10;17.70;;;;;8.60;96640.00;;;;8347246;28;20205;-76
2022/12/31 20:15:12;;;;;;;35.45;17.10;;;;;8.70;96643.00;;;;8346571;28;20193;-75
2022/12/31 20:19:15;;;;;;;32.28;15.50;;;;;8.60;96645.00;;;;8345280;28;20744;-76
2022/12/31 20:23:18;;;;;;;37.70;16.07;;;;;8.60;96640.00;;;;8346837;28;20196;-76
2022/12/31 20:27:22;;;;;;;34.50;14.90;;;;;8.50;96635.00;;;;8349080;28;20224;-76
2022/12/31 20:31:29;;;;;;;31.83;15.93;;;;;8.40;96648.00;;;;8342817;28;20271;-76
2022/12/31 20:35:32;;;;;;;29.25;13.60;;;;;8.30;96650.00;;;;8337109;28;20750;-76
2022/12/31 20:39:44;;;;;;;33.72;15.40;;;;;8.10;96651.00;;;;8346096;28;20232;-76
2022/12/31 20:43:53;;;;;;;30.23;14.30;;;;;7.90;96645.00;;;;8340157;28;20750;-76
2022/12/31 20:48:00;;;;;;;31.97;15.07;;;;;7.80;96651.00;;;;8348756;28;20255;-76
2022/12/31 20:52:04;;;;;;;37.50;15.60;;;;;7.80;96646.00;;;;8347967;28;20201;-76
2022/12/31 20:56:08;;;;;;;44.00;19.33;;;;;7.90;96647.00;;;;8346095;28;20205;-76
2022/12/31 21:00:13;;;;;;;50.83;23.05;;;;;8.00;96634.00;;;;8347131;28;20247;-77
2022/12/31 21:04:18;;;;;;;41.77;19.70;;;;;8.20;96646.00;;;;8342498;28;20256;-76
2022/12/31 21:08:22;;;;;;;38.00;17.37;;;;;8.40;96647.00;;;;8334865;28;20374;-77
2022/12/31 21:12:51;;;;;;;47.78;20.85;;;;;8.60;96652.00;;;;8339349;28;20258;-76
2022/12/31 21:16:55;;;;;;;43.45;19.63;;;;;8.70;96652.00;;;;8343460;28;20228;-77
2022/12/31 21:21:03;;;;;;;40.33;17.90;;;;;8.70;96657.00;;;;8341884;28;20202;-77
2022/12/31 21:25:07;;;;;;;42.20;19.13;;;;;8.60;96646.00;;;;8345109;28;20382;-77
2022/12/31 21:29:10;;;;;;;33.63;15.25;;;;;8.50;96651.00;;;;8347762;28;20250;-77
2022/12/31 21:33:15;;;;;;;30.33;15.27;;;;;8.60;96652.00;;;;8348884;28;20204;-77
2022/12/31 21:37:21;;;;;;;77.63;30.50;;;;;8.60;96657.00;;;;8347477;28;20741;-77
2022/12/31 21:45:47;;;;;;;35.43;15.23;;;;;8.70;96651.00;;;;8343756;28;20240;-77
2022/12/31 21:49:51;;;;;;;39.30;16.10;;;;;8.80;96660.00;;;;8346720;28;20370;-78
2022/12/31 21:53:55;;;;;;;34.60;16.23;;;;;8.90;96655.00;;;;8312594;28;20231;-77
2022/12/31 21:57:59;;;;;;;29.27;14.05;;;;;9.10;96651.00;;;;8348105;28;20217;-78
2022/12/31 22:07:01;;;;;;;29.58;14.52;;;;;9.20;96647.00;;;;8348771;28;20700;-78
2022/12/31 22:11:11;;;;;;;31.33;15.15;;;;;9.30;96644.00;;;;8348549;28;20688;-78